createdAt,value
2018-08-25T00:00:16.959Z,12.90
2018-08-25T00:02:45.250Z,12.90
2018-08-25T00:05:13.594Z,12.90
2018-08-25T00:07:41.966Z,12.90
2018-08-25T00:10:10.221Z,12.90
2018-08-25T00:12:38.666Z,12.90
2018-08-25T00:15:06.976Z,12.90
2018-08-25T00:17:35.259Z,12.90
2018-08-25T00:20:03.610Z,12.80
2018-08-25T00:22:31.954Z,12.80
2018-08-25T00:25:00.240Z,12.80
2018-08-25T00:27:28.528Z,12.80
2018-08-25T00:29:57.010Z,12.80
2018-08-25T00:32:25.271Z,12.80
2018-08-25T00:34:53.604Z,12.90
2018-08-25T00:37:21.874Z,12.90
2018-08-25T00:39:50.146Z,12.90
2018-08-25T00:42:18.441Z,12.90
2018-08-25T00:44:46.730Z,12.90
2018-08-25T00:47:15.092Z,12.80
2018-08-25T00:49:43.476Z,12.80
2018-08-25T00:52:11.787Z,12.80
2018-08-25T00:54:40.058Z,12.80
2018-08-25T00:57:08.336Z,12.70
2018-08-25T00:59:36.659Z,12.80
2018-08-25T01:02:04.946Z,12.80
2018-08-25T01:04:33.306Z,12.80
2018-08-25T01:07:01.586Z,12.90
2018-08-25T01:09:29.915Z,12.90
2018-08-25T01:11:58.342Z,12.90
2018-08-25T01:14:26.615Z,13.00
2018-08-25T01:16:54.932Z,12.90
2018-08-25T01:19:23.215Z,12.90
2018-08-25T01:21:51.548Z,12.80
2018-08-25T01:24:19.872Z,12.90
2018-08-25T01:26:48.102Z,12.90
2018-08-25T01:29:16.408Z,13.00
2018-08-25T01:31:44.755Z,13.00
2018-08-25T01:34:13.022Z,12.90
2018-08-25T01:36:41.230Z,13.00
2018-08-25T01:39:10.073Z,13.00
2018-08-25T01:41:38.548Z,13.00
2018-08-25T01:44:06.834Z,13.00
2018-08-25T01:46:35.108Z,13.10
2018-08-25T01:49:03.693Z,13.10
2018-08-25T01:51:31.994Z,13.00
2018-08-25T01:54:00.441Z,13.10
2018-08-25T01:56:28.806Z,13.10
2018-08-25T01:58:57.086Z,13.10
2018-08-25T02:01:25.440Z,13.10
2018-08-25T02:03:53.791Z,13.00
2018-08-25T02:06:22.073Z,13.00
2018-08-25T02:08:50.383Z,12.90
2018-08-25T02:11:18.654Z,13.00
2018-08-25T02:13:46.927Z,13.00
2018-08-25T02:16:15.172Z,12.90
2018-08-25T02:18:43.486Z,12.90
2018-08-25T02:21:11.712Z,12.80
2018-08-25T02:23:39.942Z,12.80
2018-08-25T02:26:08.199Z,12.90
2018-08-25T02:28:36.509Z,12.80
2018-08-25T02:31:04.811Z,12.80
2018-08-25T02:33:33.076Z,12.90
2018-08-25T02:36:01.376Z,12.90
2018-08-25T02:38:29.631Z,13.00
2018-08-25T02:40:57.948Z,12.90
2018-08-25T02:43:26.216Z,12.90
2018-08-25T02:45:54.530Z,12.90
2018-08-25T02:48:22.837Z,12.90
2018-08-25T02:50:51.208Z,12.90
2018-08-25T02:53:19.441Z,12.90
2018-08-25T02:55:47.790Z,12.90
2018-08-25T02:58:16.137Z,12.90
2018-08-25T03:00:44.395Z,12.90
2018-08-25T03:03:12.672Z,12.80
2018-08-25T03:05:40.945Z,12.90
2018-08-25T03:08:09.232Z,12.80
2018-08-25T03:10:37.505Z,12.80
2018-08-25T03:13:05.847Z,12.80
2018-08-25T03:15:34.135Z,12.80
2018-08-25T03:18:02.396Z,12.80
2018-08-25T03:20:30.703Z,12.80
2018-08-25T03:22:59.023Z,12.80
2018-08-25T03:25:27.282Z,12.80
2018-08-25T03:27:55.567Z,12.80
2018-08-25T03:30:23.866Z,12.70
2018-08-25T03:32:52.107Z,12.70
2018-08-25T03:35:20.484Z,12.80
2018-08-25T03:37:49.304Z,12.80
2018-08-25T03:40:17.606Z,12.90
2018-08-25T03:42:46.333Z,12.90
2018-08-25T03:45:14.755Z,12.80
2018-08-25T03:47:43.065Z,12.80
2018-08-25T03:50:11.389Z,12.80
2018-08-25T03:52:39.660Z,12.80
2018-08-25T03:55:07.937Z,12.80
2018-08-25T03:57:36.201Z,12.90
2018-08-25T04:00:05.003Z,12.90
2018-08-25T04:02:33.345Z,12.90
2018-08-25T04:05:01.619Z,12.90
2018-08-25T04:07:29.870Z,12.90
2018-08-25T04:09:58.214Z,13.00
2018-08-25T04:12:26.677Z,13.00
2018-08-25T04:14:55.125Z,13.00
2018-08-25T04:17:23.329Z,12.90
2018-08-25T04:19:51.618Z,13.00
2018-08-25T04:22:20.022Z,13.00
2018-08-25T04:24:48.238Z,13.00
2018-08-25T04:27:16.543Z,13.00
2018-08-25T04:29:44.824Z,13.10
2018-08-25T04:32:13.082Z,13.10
2018-08-25T04:34:41.403Z,13.10
2018-08-25T04:37:09.684Z,13.10
2018-08-25T04:39:37.991Z,13.20
2018-08-25T04:42:06.230Z,13.10
2018-08-25T04:44:34.456Z,13.30
2018-08-25T04:47:03.149Z,13.30
2018-08-25T04:49:31.490Z,13.30
2018-08-25T04:51:59.879Z,13.30
2018-08-25T04:54:28.178Z,13.30
2018-08-25T04:56:56.411Z,13.30
2018-08-25T04:59:24.705Z,13.30
2018-08-25T05:01:53.004Z,13.30
2018-08-25T05:04:21.248Z,13.30
2018-08-25T05:06:49.504Z,13.30
2018-08-25T05:09:17.856Z,13.40
2018-08-25T05:11:46.065Z,13.50
2018-08-25T05:14:14.384Z,13.50
2018-08-25T05:16:42.691Z,13.50
2018-08-25T05:19:11.064Z,13.50
2018-08-25T05:21:39.350Z,13.50
2018-08-25T05:24:07.626Z,13.50
2018-08-25T05:26:35.920Z,13.50
2018-08-25T05:29:04.250Z,13.50
2018-08-25T05:31:32.561Z,13.50
2018-08-25T05:34:00.945Z,13.60
2018-08-25T05:36:29.234Z,13.60
2018-08-25T05:38:57.506Z,13.60
2018-08-25T05:41:25.808Z,13.70
2018-08-25T05:43:54.174Z,13.80
2018-08-25T05:46:22.488Z,13.80
2018-08-25T05:48:50.786Z,13.80
2018-08-25T05:51:19.001Z,13.80
2018-08-25T05:53:47.282Z,13.90
2018-08-25T05:56:15.598Z,14.00
2018-08-25T05:58:43.905Z,14.10
2018-08-25T06:01:12.180Z,14.10
2018-08-25T06:03:40.489Z,14.20
2018-08-25T06:06:08.763Z,14.20
2018-08-25T06:08:37.062Z,14.20
2018-08-25T06:11:05.359Z,14.20
2018-08-25T06:13:33.776Z,14.30
2018-08-25T06:16:02.005Z,14.30
2018-08-25T06:18:30.333Z,14.40
2018-08-25T06:20:58.679Z,14.40
2018-08-25T06:23:26.964Z,14.50
2018-08-25T06:25:55.275Z,14.40
2018-08-25T06:28:23.924Z,14.50
2018-08-25T06:30:52.168Z,14.40
2018-08-25T06:33:20.451Z,14.40
2018-08-25T06:35:48.714Z,14.50
2018-08-25T06:38:17.092Z,14.50
2018-08-25T06:40:45.346Z,14.70
2018-08-25T06:43:13.737Z,14.70
2018-08-25T06:45:42.083Z,14.70
2018-08-25T06:48:10.378Z,14.70
2018-08-25T06:50:38.659Z,14.70
2018-08-25T06:53:06.915Z,14.70
2018-08-25T06:55:35.205Z,14.70
2018-08-25T06:58:03.553Z,14.70
2018-08-25T07:00:31.826Z,14.70
2018-08-25T07:03:00.147Z,14.70
2018-08-25T07:05:28.482Z,14.70
2018-08-25T07:07:56.716Z,14.70
2018-08-25T07:10:25.069Z,14.80
2018-08-25T07:12:53.337Z,14.80
2018-08-25T07:15:21.639Z,14.70
2018-08-25T07:17:49.888Z,14.80
2018-08-25T07:20:18.225Z,14.70
2018-08-25T07:22:46.523Z,14.70
2018-08-25T07:25:14.807Z,14.80
2018-08-25T07:27:43.090Z,14.80
2018-08-25T07:30:11.389Z,14.80
2018-08-25T07:32:39.690Z,14.70
2018-08-25T07:35:08.000Z,14.70
2018-08-25T07:37:36.295Z,14.70
2018-08-25T07:40:04.714Z,14.70
2018-08-25T07:42:32.962Z,14.70
2018-08-25T07:45:01.312Z,14.60
2018-08-25T07:47:29.567Z,14.60
2018-08-25T07:49:57.807Z,14.60
2018-08-25T07:52:26.117Z,14.50
2018-08-25T07:54:54.341Z,14.50
2018-08-25T07:57:22.620Z,14.40
2018-08-25T07:59:50.988Z,14.40
2018-08-25T08:02:19.275Z,14.40
2018-08-25T08:04:47.611Z,14.40
2018-08-25T08:07:15.830Z,14.40
2018-08-25T08:09:44.167Z,14.60
2018-08-25T08:12:12.463Z,14.60
2018-08-25T08:14:40.710Z,14.60
2018-08-25T08:17:09.015Z,14.60
2018-08-25T08:19:37.396Z,14.60
2018-08-25T08:22:05.667Z,14.50
2018-08-25T08:24:34.413Z,14.50
2018-08-25T08:27:02.746Z,14.40
2018-08-25T08:29:31.036Z,14.50
2018-08-25T08:31:59.424Z,14.50
2018-08-25T08:34:27.704Z,14.40
2018-08-25T08:36:55.928Z,14.40
2018-08-25T08:39:24.274Z,14.40
2018-08-25T08:41:52.539Z,14.40
2018-08-25T08:44:21.082Z,14.40
2018-08-25T08:46:49.338Z,14.30
2018-08-25T08:49:17.663Z,14.30
2018-08-25T08:51:45.935Z,14.30
2018-08-25T08:54:14.224Z,14.30
2018-08-25T08:56:42.529Z,14.30
2018-08-25T08:59:11.058Z,14.20
2018-08-25T09:01:39.297Z,14.30
2018-08-25T09:04:07.645Z,14.30
2018-08-25T09:06:36.131Z,14.30
2018-08-25T09:09:08.150Z,14.20
2018-08-25T09:11:36.569Z,14.20
2018-08-25T09:14:04.914Z,14.20
2018-08-25T09:16:33.201Z,14.10
2018-08-25T09:19:01.545Z,14.10
2018-08-25T09:21:29.803Z,14.20
2018-08-25T09:23:58.083Z,14.10
2018-08-25T09:26:26.522Z,14.10
2018-08-25T09:28:54.827Z,14.10
2018-08-25T09:31:23.158Z,14.10
2018-08-25T09:33:51.390Z,14.10
2018-08-25T09:36:20.067Z,14.20
2018-08-25T09:38:48.476Z,14.10
2018-08-25T09:41:16.787Z,14.10
2018-08-25T09:43:45.122Z,14.10
2018-08-25T09:46:13.386Z,14.10
2018-08-25T09:48:41.671Z,14.10
2018-08-25T09:51:10.308Z,14.10
2018-08-25T09:53:38.675Z,14.20
2018-08-25T09:56:13.665Z,14.20
2018-08-25T09:58:41.906Z,14.30
2018-08-25T10:01:15.484Z,14.40
2018-08-25T10:03:43.873Z,14.70
2018-08-25T10:06:12.125Z,14.80
2018-08-25T10:08:40.442Z,14.80
2018-08-25T10:11:08.747Z,14.90
2018-08-25T10:13:37.112Z,14.90
2018-08-25T10:16:05.557Z,15.00
2018-08-25T10:18:33.861Z,15.00
2018-08-25T10:21:02.185Z,15.10
2018-08-25T10:23:30.675Z,15.20
2018-08-25T10:25:59.079Z,15.20
2018-08-25T10:28:27.388Z,15.30
2018-08-25T10:30:55.711Z,15.40
2018-08-25T10:33:24.021Z,15.30
2018-08-25T10:35:52.382Z,15.30
2018-08-25T10:38:20.669Z,15.40
2018-08-25T10:40:48.990Z,15.40
2018-08-25T10:43:17.241Z,15.50
2018-08-25T10:45:45.588Z,15.40
2018-08-25T10:48:13.905Z,15.40
2018-08-25T10:50:42.141Z,15.40
2018-08-25T10:53:10.395Z,15.40
2018-08-25T10:55:38.733Z,15.40
2018-08-25T10:58:07.032Z,15.50
2018-08-25T11:00:35.326Z,15.50
2018-08-25T11:03:03.645Z,15.40
2018-08-25T11:05:31.903Z,15.50
2018-08-25T11:08:00.269Z,15.50
2018-08-25T11:10:28.561Z,15.60
2018-08-25T11:12:56.805Z,15.60
2018-08-25T11:15:25.092Z,15.60
2018-08-25T11:17:53.394Z,15.50
2018-08-25T11:20:21.759Z,15.50
2018-08-25T11:22:49.972Z,15.50
2018-08-25T11:25:18.262Z,15.60
2018-08-25T11:27:46.593Z,15.60
2018-08-25T11:30:14.893Z,15.60
2018-08-25T11:32:43.231Z,15.60
2018-08-25T11:35:11.597Z,15.70
2018-08-25T11:37:39.908Z,15.70
2018-08-25T11:40:08.215Z,15.90
2018-08-25T11:42:36.617Z,15.90
2018-08-25T11:45:05.448Z,15.90
2018-08-25T11:47:33.731Z,15.80
2018-08-25T11:50:02.003Z,15.80
2018-08-25T11:52:30.304Z,15.80
2018-08-25T11:54:58.661Z,15.80
2018-08-25T11:57:26.892Z,15.80
2018-08-25T11:59:55.240Z,15.80
2018-08-25T12:02:23.592Z,15.90
2018-08-25T12:04:51.892Z,15.90
2018-08-25T12:07:20.220Z,16.00
2018-08-25T12:09:48.559Z,16.20
2018-08-25T12:12:16.837Z,16.30
2018-08-25T12:14:45.167Z,16.40
2018-08-25T12:17:13.470Z,16.60
2018-08-25T12:19:41.775Z,16.60
2018-08-25T12:22:10.063Z,16.70
2018-08-25T12:24:38.402Z,16.70
2018-08-25T12:27:06.662Z,16.80
2018-08-25T12:29:34.976Z,16.90
2018-08-25T12:32:03.273Z,17.10
2018-08-25T12:34:31.612Z,17.30
2018-08-25T12:36:59.984Z,17.20
2018-08-25T12:39:28.315Z,17.10
2018-08-25T12:41:56.624Z,17.00
2018-08-25T12:44:24.895Z,17.00
2018-08-25T12:46:53.176Z,16.90
2018-08-25T12:49:21.514Z,16.90
2018-08-25T12:51:49.773Z,17.00
2018-08-25T12:54:18.096Z,17.00
2018-08-25T12:56:46.352Z,17.00
2018-08-25T12:59:21.296Z,17.10
2018-08-25T13:01:49.693Z,17.00
2018-08-25T13:04:17.905Z,17.10
2018-08-25T13:06:46.158Z,17.00
2018-08-25T13:09:14.465Z,16.90
2018-08-25T13:11:42.782Z,16.90
2018-08-25T13:14:11.118Z,16.90
2018-08-25T13:16:39.406Z,16.80
2018-08-25T13:19:07.664Z,16.70
2018-08-25T13:21:35.967Z,16.60
2018-08-25T13:24:04.210Z,16.40
2018-08-25T13:26:32.565Z,16.40
2018-08-25T13:29:00.979Z,16.20
2018-08-25T13:31:29.392Z,16.20
2018-08-25T13:33:57.700Z,16.20
2018-08-25T13:36:25.968Z,16.20
2018-08-25T13:38:54.276Z,16.20
2018-08-25T13:41:22.534Z,16.30
2018-08-25T13:43:50.855Z,16.50
2018-08-25T13:46:19.142Z,16.50
2018-08-25T13:48:47.438Z,16.50
2018-08-25T13:51:15.681Z,16.50
2018-08-25T13:53:44.052Z,16.30
2018-08-25T13:56:12.432Z,16.20
2018-08-25T13:58:40.963Z,16.20
2018-08-25T14:01:09.456Z,16.20
2018-08-25T14:03:37.806Z,16.20
2018-08-25T14:06:06.117Z,16.30
2018-08-25T14:08:34.361Z,16.30
2018-08-25T14:11:02.621Z,16.30
2018-08-25T14:13:30.964Z,16.30
2018-08-25T14:15:59.311Z,16.30
2018-08-25T14:18:27.588Z,16.30
2018-08-25T14:20:55.932Z,16.40
2018-08-25T14:23:24.183Z,16.30
2018-08-25T14:25:52.451Z,16.30
2018-08-25T14:28:20.725Z,16.30
2018-08-25T14:30:49.048Z,16.30
2018-08-25T14:33:17.463Z,16.20
2018-08-25T14:35:45.730Z,16.20
2018-08-25T14:38:14.027Z,16.20
2018-08-25T14:40:42.379Z,16.30
2018-08-25T14:43:10.718Z,16.50
2018-08-25T14:45:39.069Z,16.60
2018-08-25T14:48:11.637Z,16.70
2018-08-25T14:50:39.934Z,16.70
2018-08-25T14:53:08.671Z,16.70
2018-08-25T14:55:37.003Z,16.70
2018-08-25T14:58:05.339Z,16.50
2018-08-25T15:00:33.696Z,16.40
2018-08-25T15:03:01.910Z,16.40
2018-08-25T15:05:30.233Z,16.30
2018-08-25T15:07:58.992Z,16.30
2018-08-25T15:10:27.669Z,16.10
2018-08-25T15:12:56.212Z,15.50
2018-08-25T15:15:24.578Z,15.20
2018-08-25T15:17:52.890Z,15.00
2018-08-25T15:20:21.191Z,15.00
2018-08-25T15:22:49.449Z,14.90
2018-08-25T15:25:17.784Z,14.90
2018-08-25T15:27:46.110Z,14.90
2018-08-25T15:30:14.375Z,14.90
2018-08-25T15:32:42.633Z,15.00
2018-08-25T15:35:10.979Z,15.20
2018-08-25T15:37:39.285Z,15.40
2018-08-25T15:40:07.734Z,15.60
2018-08-25T15:42:36.084Z,15.60
2018-08-25T15:45:04.393Z,15.60
2018-08-25T15:47:32.688Z,15.50
2018-08-25T15:50:01.057Z,15.40
2018-08-25T15:52:29.322Z,15.30
2018-08-25T15:54:57.557Z,15.30
2018-08-25T15:57:26.007Z,15.20
2018-08-25T15:59:54.179Z,15.20
2018-08-25T16:02:22.472Z,15.20
2018-08-25T16:04:50.786Z,15.30
2018-08-25T16:07:19.171Z,15.30
2018-08-25T16:09:47.561Z,15.30
2018-08-25T16:12:15.934Z,15.30
2018-08-25T16:14:44.183Z,15.30
2018-08-25T16:17:12.520Z,15.40
2018-08-25T16:19:40.921Z,15.40
2018-08-25T16:22:09.271Z,15.50
2018-08-25T16:24:37.607Z,15.50
2018-08-25T16:27:05.997Z,15.60
2018-08-25T16:29:34.337Z,15.70
2018-08-25T16:32:02.857Z,15.70
2018-08-25T16:34:31.098Z,15.70
2018-08-25T16:36:59.642Z,15.60
2018-08-25T16:39:28.896Z,15.60
2018-08-25T16:41:57.241Z,15.70
2018-08-25T16:44:25.567Z,15.50
2018-08-25T16:46:53.828Z,15.40
2018-08-25T16:49:22.140Z,15.30
2018-08-25T16:51:50.384Z,15.30
2018-08-25T16:54:18.647Z,15.30
2018-08-25T16:56:46.916Z,15.30
2018-08-25T16:59:15.168Z,15.20
2018-08-25T17:01:43.558Z,15.20
2018-08-25T17:04:11.796Z,15.20
2018-08-25T17:06:40.111Z,15.30
2018-08-25T17:09:09.783Z,15.20
2018-08-25T17:11:38.088Z,15.20
2018-08-25T17:14:06.414Z,15.20
2018-08-25T17:16:34.725Z,15.00
2018-08-25T17:19:03.055Z,14.90
2018-08-25T17:21:31.282Z,14.90
2018-08-25T17:23:59.585Z,14.90
2018-08-25T17:26:27.909Z,14.90
2018-08-25T17:28:56.327Z,14.90
2018-08-25T17:31:24.573Z,14.90
2018-08-25T17:33:53.172Z,14.90
2018-08-25T17:36:21.402Z,14.90
2018-08-25T17:38:49.748Z,14.80
2018-08-25T17:41:18.029Z,14.70
2018-08-25T17:43:46.258Z,14.70
2018-08-25T17:46:14.818Z,14.60
2018-08-25T17:48:43.294Z,14.60
2018-08-25T17:51:11.672Z,14.60
2018-08-25T17:53:40.021Z,14.60
2018-08-25T17:56:08.330Z,14.60
2018-08-25T17:58:36.675Z,14.60
2018-08-25T18:01:04.928Z,14.60
2018-08-25T18:03:33.239Z,14.50
2018-08-25T18:06:01.599Z,14.40
2018-08-25T18:08:29.892Z,14.40
2018-08-25T18:10:58.254Z,14.30
2018-08-25T18:13:26.469Z,14.30
2018-08-25T18:15:54.762Z,14.20
2018-08-25T18:18:23.050Z,14.10
2018-08-25T18:20:51.326Z,14.10
2018-08-25T18:23:19.627Z,14.00
2018-08-25T18:25:47.925Z,14.00
2018-08-25T18:28:16.199Z,13.90
2018-08-25T18:30:44.511Z,13.90
2018-08-25T18:33:12.811Z,13.80
2018-08-25T18:35:41.125Z,13.70
2018-08-25T18:38:09.397Z,13.70
2018-08-25T18:40:37.716Z,13.70
2018-08-25T18:43:06.087Z,13.60
2018-08-25T18:45:34.408Z,13.50
2018-08-25T18:48:02.745Z,13.40
2018-08-25T18:50:31.030Z,13.30
2018-08-25T18:52:59.334Z,13.20
2018-08-25T18:55:27.613Z,13.10
2018-08-25T18:57:55.921Z,13.10
2018-08-25T19:00:24.308Z,13.00
2018-08-25T19:02:52.582Z,12.90
2018-08-25T19:05:20.848Z,12.80
2018-08-25T19:07:49.136Z,12.80
2018-08-25T19:10:17.711Z,12.70
2018-08-25T19:12:45.976Z,12.60
2018-08-25T19:15:14.301Z,12.70
2018-08-25T19:17:42.524Z,12.60
2018-08-25T19:20:10.805Z,12.50
2018-08-25T19:22:39.106Z,12.40
2018-08-25T19:25:07.380Z,12.30
2018-08-25T19:27:35.669Z,12.20
2018-08-25T19:30:03.923Z,12.10
2018-08-25T19:32:32.255Z,12.10
2018-08-25T19:35:00.671Z,12.10
2018-08-25T19:37:28.952Z,12.00
2018-08-25T19:39:57.242Z,11.90
2018-08-25T19:42:25.601Z,11.70
2018-08-25T19:44:53.854Z,11.80
2018-08-25T19:47:22.133Z,11.80
2018-08-25T19:49:50.408Z,11.80
2018-08-25T19:52:18.728Z,11.80
2018-08-25T19:54:47.051Z,11.70
2018-08-25T19:57:15.297Z,11.70
2018-08-25T19:59:43.620Z,11.80
2018-08-25T20:02:11.944Z,11.80
2018-08-25T20:04:40.221Z,11.70
2018-08-25T20:07:08.520Z,11.70
2018-08-25T20:09:36.855Z,11.70
2018-08-25T20:12:05.167Z,11.70
2018-08-25T20:14:33.422Z,11.70
2018-08-25T20:17:01.746Z,11.70
2018-08-25T20:19:30.056Z,11.70
2018-08-25T20:21:58.334Z,11.70
2018-08-25T20:24:26.564Z,11.70
2018-08-25T20:26:54.889Z,11.70
2018-08-25T20:29:23.196Z,11.70
2018-08-25T20:31:51.441Z,11.80
2018-08-25T20:34:19.732Z,11.80
2018-08-25T20:36:47.981Z,11.80
2018-08-25T20:39:16.262Z,11.80
2018-08-25T20:41:44.548Z,11.80
2018-08-25T20:44:12.857Z,11.70
2018-08-25T20:46:41.155Z,11.80
2018-08-25T20:49:09.381Z,11.70
2018-08-25T20:51:37.670Z,11.60
2018-08-25T20:54:06.005Z,11.60
2018-08-25T20:56:34.311Z,11.60
2018-08-25T20:59:03.098Z,11.50
2018-08-25T21:01:31.329Z,11.40
2018-08-25T21:03:59.879Z,11.20
2018-08-25T21:06:28.224Z,11.10
2018-08-25T21:08:56.480Z,11.10
2018-08-25T21:11:24.744Z,11.00
2018-08-25T21:13:53.011Z,11.00
2018-08-25T21:16:21.378Z,10.90
2018-08-25T21:18:49.610Z,10.90
2018-08-25T21:21:18.028Z,10.80
2018-08-25T21:23:46.252Z,10.80
2018-08-25T21:26:14.542Z,10.70
2018-08-25T21:28:42.832Z,10.70
2018-08-25T21:31:11.085Z,10.70
2018-08-25T21:33:39.377Z,10.60
2018-08-25T21:36:07.773Z,10.60
2018-08-25T21:38:36.037Z,10.50
2018-08-25T21:41:04.481Z,10.40
2018-08-25T21:43:32.727Z,10.40
2018-08-25T21:46:01.116Z,10.50
2018-08-25T21:48:29.361Z,10.40
2018-08-25T21:50:57.738Z,10.40
2018-08-25T21:53:26.006Z,10.40
2018-08-25T21:55:54.358Z,10.40
2018-08-25T21:58:22.637Z,10.40
2018-08-25T22:00:57.964Z,10.40
2018-08-25T22:03:27.588Z,10.40
2018-08-25T22:05:56.648Z,10.30
2018-08-25T22:08:25.458Z,10.30
2018-08-25T22:10:54.025Z,10.30
2018-08-25T22:13:22.607Z,10.30
2018-08-25T22:15:50.960Z,10.20
2018-08-25T22:18:19.801Z,10.20
2018-08-25T22:20:48.080Z,10.20
2018-08-25T22:23:16.321Z,10.20
2018-08-25T22:25:44.652Z,10.10
2018-08-25T22:28:12.870Z,10.10
2018-08-25T22:30:41.103Z,10.10
2018-08-25T22:33:09.371Z,10.20
2018-08-25T22:35:37.654Z,10.10
2018-08-25T22:38:05.925Z,10.00
2018-08-25T22:40:34.261Z,10.00
2018-08-25T22:43:02.562Z,9.90
2018-08-25T22:45:30.831Z,9.80
2018-08-25T22:47:59.073Z,9.80
2018-08-25T22:50:27.325Z,9.70
2018-08-25T22:52:55.568Z,9.80
2018-08-25T22:55:24.043Z,9.70
2018-08-25T22:57:52.416Z,9.70
2018-08-25T23:00:21.194Z,9.60
2018-08-25T23:02:49.428Z,9.60
2018-08-25T23:05:17.790Z,9.60
2018-08-25T23:07:46.091Z,9.60
2018-08-25T23:10:14.388Z,9.60
2018-08-25T23:12:42.687Z,9.60
2018-08-25T23:15:11.024Z,9.60
2018-08-25T23:17:39.353Z,9.60
2018-08-25T23:20:07.622Z,9.60
2018-08-25T23:22:35.935Z,9.60
2018-08-25T23:25:04.327Z,9.60
2018-08-25T23:27:32.638Z,9.60
2018-08-25T23:30:01.039Z,9.60
2018-08-25T23:32:29.325Z,9.50
2018-08-25T23:34:57.630Z,9.50
2018-08-25T23:37:25.920Z,9.40
2018-08-25T23:39:54.227Z,9.40
2018-08-25T23:42:22.458Z,9.40
2018-08-25T23:44:50.708Z,9.50
2018-08-25T23:47:18.989Z,9.40
2018-08-25T23:49:47.296Z,9.30
2018-08-25T23:52:15.605Z,9.30
2018-08-25T23:54:43.859Z,9.20
2018-08-25T23:57:12.142Z,9.30
2018-08-25T23:59:40.458Z,9.30
